createdAt,value
2023-01-02T00:02:27.786Z,11.77
2023-01-02T00:06:34.957Z,11.23
2023-01-02T00:10:38.870Z,12.20
2023-01-02T00:14:42.416Z,12.80
2023-01-02T00:18:46.143Z,12.70
2023-01-02T00:22:51.148Z,11.27
2023-01-02T00:26:54.886Z,11.60
2023-01-02T00:30:58.704Z,10.43
2023-01-02T00:35:02.333Z,12.63
2023-01-02T00:39:07.502Z,12.17
2023-01-02T00:43:11.056Z,8.30
2023-01-02T00:47:14.763Z,10.23
2023-01-02T00:51:24.269Z,11.90
2023-01-02T00:55:29.277Z,11.60
2023-01-02T00:59:33.687Z,10.03
2023-01-02T01:03:37.031Z,12.40
2023-01-02T01:07:40.379Z,12.13
2023-01-02T01:11:45.047Z,10.40
2023-01-02T01:15:48.530Z,12.20
2023-01-02T01:19:51.862Z,10.30
2023-01-02T01:23:56.829Z,9.73
2023-01-02T01:28:01.516Z,12.27
2023-01-02T01:32:05.258Z,13.70
2023-01-02T01:36:11.147Z,13.30
2023-01-02T01:40:14.542Z,11.87
2023-01-02T01:44:45.893Z,11.60
2023-01-02T01:48:54.994Z,13.57
2023-01-02T01:53:03.176Z,11.93
2023-01-02T01:57:14.553Z,11.27
2023-01-02T02:01:20.093Z,11.83
2023-01-02T02:05:26.224Z,12.00
2023-01-02T02:09:36.541Z,9.03
2023-01-02T02:13:39.949Z,9.70
2023-01-02T02:17:54.701Z,12.13
2023-01-02T02:22:22.363Z,9.53
2023-01-02T02:26:50.364Z,9.70
2023-01-02T02:31:00.764Z,11.90
2023-01-02T02:35:15.577Z,10.27
2023-01-02T02:39:24.990Z,10.80
2023-01-02T02:43:38.293Z,11.60
2023-01-02T02:47:49.798Z,8.10
2023-01-02T02:52:01.704Z,12.10
2023-01-02T02:56:09.086Z,11.20
2023-01-02T03:00:17.369Z,11.27
2023-01-02T03:04:24.344Z,10.97
2023-01-02T03:08:35.160Z,11.03
2023-01-02T03:12:48.649Z,7.90
2023-01-02T03:17:00.987Z,11.03
2023-01-02T03:21:09.358Z,11.37
2023-01-02T03:25:15.810Z,11.17
2023-01-02T03:29:23.259Z,8.17
2023-01-02T03:33:28.848Z,9.03
2023-01-02T03:37:38.091Z,11.03
2023-01-02T03:41:44.841Z,10.23
2023-01-02T03:45:55.350Z,10.10
2023-01-02T03:50:04.066Z,7.60
2023-01-02T03:54:09.735Z,13.00
2023-01-02T03:58:19.643Z,10.40
2023-01-02T04:02:29.912Z,15.47
2023-01-02T04:06:38.489Z,9.30
2023-01-02T04:10:45.818Z,10.87
2023-01-02T04:14:52.051Z,8.87
2023-01-02T04:18:58.650Z,10.53
2023-01-02T04:23:06.622Z,11.23
2023-01-02T04:27:16.890Z,8.90
2023-01-02T04:31:24.907Z,11.33
2023-01-02T04:35:28.737Z,9.23
2023-01-02T04:39:32.746Z,11.30
2023-01-02T04:43:37.413Z,13.23
2023-01-02T04:47:40.708Z,8.20
2023-01-02T04:51:44.575Z,9.50
2023-01-02T04:55:47.783Z,12.47
2023-01-02T04:59:52.656Z,8.50
2023-01-02T05:03:56.099Z,11.53
2023-01-02T05:07:59.965Z,10.87
2023-01-02T05:12:03.278Z,12.00
2023-01-02T05:16:09.603Z,8.00
2023-01-02T05:20:15.291Z,7.47
2023-01-02T05:24:19.596Z,7.53
2023-01-02T05:28:23.355Z,17.00
2023-01-02T05:32:28.689Z,7.07
2023-01-02T05:36:31.938Z,9.40
2023-01-02T05:40:35.434Z,7.97
2023-01-02T05:44:38.683Z,11.07
2023-01-02T05:48:45.697Z,13.90
2023-01-02T05:52:48.978Z,7.83
2023-01-02T05:56:52.344Z,12.67
2023-01-02T06:00:55.524Z,9.27
2023-01-02T06:05:00.272Z,8.60
2023-01-02T06:09:05.050Z,10.70
2023-01-02T06:13:08.450Z,7.90
2023-01-02T06:17:11.737Z,78.53
2023-01-02T06:21:18.299Z,42.43
2023-01-02T06:25:21.556Z,40.87
2023-01-02T06:29:24.961Z,17.50
2023-01-02T06:33:28.796Z,20.77
2023-01-02T06:37:33.454Z,13.80
2023-01-02T06:41:36.891Z,12.67
2023-01-02T06:45:40.252Z,7.43
2023-01-02T06:49:46.742Z,9.93
2023-01-02T06:53:51.996Z,13.00
2023-01-02T06:57:55.263Z,15.03
2023-01-02T07:01:58.797Z,11.20
2023-01-02T07:06:03.230Z,11.03
2023-01-02T07:10:10.227Z,9.43
2023-01-02T07:14:13.935Z,12.73
2023-01-02T07:18:17.301Z,10.93
2023-01-02T07:22:20.735Z,11.03
2023-01-02T07:26:25.442Z,11.67
2023-01-02T07:30:28.966Z,12.23
2023-01-02T07:34:32.262Z,14.40
2023-01-02T07:38:38.289Z,23.17
2023-01-02T07:42:43.129Z,12.10
2023-01-02T07:46:46.488Z,20.57
2023-01-02T07:50:50.164Z,11.67
2023-01-02T07:54:53.430Z,16.80
2023-01-02T07:58:58.149Z,14.40
2023-01-02T08:03:02.187Z,12.17
2023-01-02T08:07:05.580Z,13.40
2023-01-02T08:11:10.795Z,13.27
2023-01-02T08:15:15.505Z,13.27
2023-01-02T08:19:18.935Z,11.90
2023-01-02T08:23:22.463Z,10.43
2023-01-02T08:27:26.926Z,10.10
2023-01-02T08:31:32.224Z,11.40
2023-01-02T08:35:38.858Z,11.60
2023-01-02T08:39:42.459Z,12.07
2023-01-02T08:43:45.927Z,10.60
2023-01-02T08:47:50.608Z,13.13
2023-01-02T08:51:54.951Z,16.53
2023-01-02T08:56:23.933Z,15.97
2023-01-02T09:00:27.215Z,14.87
2023-01-02T09:04:32.048Z,17.67
2023-01-02T09:08:35.601Z,22.40
2023-01-02T09:12:39.100Z,20.37
2023-01-02T09:16:42.355Z,24.27
2023-01-02T09:20:47.613Z,29.73
2023-01-02T09:24:50.913Z,22.97
2023-01-02T09:28:57.637Z,19.73
2023-01-02T09:33:01.277Z,20.37
2023-01-02T09:37:06.247Z,19.17
2023-01-02T09:41:22.680Z,15.20
2023-01-02T09:45:26.322Z,15.90
2023-01-02T09:49:35.307Z,15.80
2023-01-02T09:53:41.097Z,14.03
2023-01-02T09:57:52.956Z,17.57
2023-01-02T10:02:04.820Z,19.23
2023-01-02T10:06:13.484Z,14.37
2023-01-02T10:10:27.712Z,17.57
2023-01-02T10:14:44.650Z,16.00
2023-01-02T10:18:53.923Z,16.17
2023-01-02T10:23:00.779Z,16.77
2023-01-02T10:27:07.257Z,15.87
2023-01-02T10:31:18.466Z,16.73
2023-01-02T10:35:35.660Z,13.87
2023-01-02T10:39:38.856Z,8.10
2023-01-02T10:43:43.644Z,5.70
2023-01-02T10:47:46.921Z,6.30
2023-01-02T10:51:54.193Z,5.87
2023-01-02T10:55:57.738Z,6.13
2023-01-02T11:00:04.753Z,7.60
2023-01-02T11:04:14.311Z,10.90
2023-01-02T11:08:20.054Z,8.13
2023-01-02T11:12:27.444Z,5.60
2023-01-02T11:16:33.760Z,8.50
2023-01-02T11:20:38.548Z,9.30
2023-01-02T11:25:00.436Z,7.53
2023-01-02T11:29:08.958Z,6.17
2023-01-02T11:33:28.071Z,7.67
2023-01-02T11:37:31.815Z,7.47
2023-01-02T11:42:04.773Z,8.00
2023-01-02T11:46:18.260Z,13.40
2023-01-02T11:50:26.453Z,12.20
2023-01-02T11:54:39.916Z,8.40
2023-01-02T11:58:53.388Z,6.40
2023-01-02T12:03:05.410Z,8.60
2023-01-02T12:07:27.499Z,6.90
2023-01-02T12:11:40.933Z,7.13
2023-01-02T12:16:02.515Z,3.60
2023-01-02T12:20:19.316Z,4.50
2023-01-02T12:24:52.490Z,5.93
2023-01-02T12:29:46.147Z,6.40
2023-01-02T12:33:57.066Z,8.20
2023-01-02T12:38:02.252Z,7.53
2023-01-02T12:42:20.972Z,10.80
2023-01-02T12:46:40.153Z,7.20
2023-01-02T12:50:59.978Z,6.90
2023-01-02T12:55:16.968Z,5.97
2023-01-02T12:59:50.271Z,6.80
2023-01-02T13:03:59.724Z,6.80
2023-01-02T13:08:09.156Z,6.20
2023-01-02T13:12:15.531Z,5.67
2023-01-02T13:16:25.214Z,7.63
2023-01-02T13:20:44.333Z,5.33
2023-01-02T13:24:48.154Z,5.53
2023-01-02T13:28:57.089Z,4.80
2023-01-02T13:33:03.742Z,5.30
2023-01-02T13:37:11.639Z,6.60
2023-01-02T13:41:17.149Z,7.17
2023-01-02T13:45:24.912Z,5.70
2023-01-02T13:49:29.883Z,5.43
2023-01-02T13:53:39.735Z,4.50
2023-01-02T13:57:43.650Z,4.50
2023-01-02T14:02:16.954Z,4.93
2023-01-02T14:06:34.321Z,4.70
2023-01-02T14:10:49.592Z,4.87
2023-01-02T14:14:55.177Z,11.80
2023-01-02T14:19:16.891Z,4.00
2023-01-02T14:23:32.473Z,5.20
2023-01-02T14:27:37.992Z,3.30
2023-01-02T14:31:43.128Z,3.23
2023-01-02T14:35:53.762Z,3.40
2023-01-02T14:40:10.221Z,4.57
2023-01-02T14:44:13.781Z,4.70
2023-01-02T14:48:26.894Z,3.73
2023-01-02T14:52:38.736Z,4.57
2023-01-02T14:56:47.325Z,3.83
2023-01-02T15:00:52.451Z,4.10
2023-01-02T15:05:03.385Z,3.47
2023-01-02T15:09:12.939Z,5.27
2023-01-02T15:13:17.488Z,5.47
2023-01-02T15:17:22.511Z,5.73
2023-01-02T15:21:29.004Z,5.77
2023-01-02T15:25:38.348Z,3.80
2023-01-02T15:29:49.987Z,5.80
2023-01-02T15:33:54.359Z,6.70
2023-01-02T15:37:58.028Z,6.00
2023-01-02T15:42:05.396Z,5.00
2023-01-02T15:46:17.323Z,4.50
2023-01-02T15:50:23.211Z,5.60
2023-01-02T15:54:27.321Z,6.20
2023-01-02T15:58:32.430Z,7.27
2023-01-02T16:02:44.992Z,6.90
2023-01-02T16:06:48.729Z,6.80
2023-01-02T16:11:01.363Z,5.40
2023-01-02T16:15:05.719Z,7.97
2023-01-02T16:19:19.320Z,11.10
2023-01-02T16:23:23.324Z,9.33
2023-01-02T16:27:30.285Z,23.93
2023-01-02T16:31:52.446Z,17.40
2023-01-02T16:36:01.249Z,9.23
2023-01-02T16:41:01.177Z,6.97
2023-01-02T16:45:07.949Z,7.30
2023-01-02T16:49:15.491Z,9.83
2023-01-02T16:53:23.916Z,7.07
2023-01-02T16:57:27.625Z,7.70
2023-01-02T17:01:31.543Z,8.00
2023-01-02T17:05:39.965Z,8.63
2023-01-02T17:09:44.604Z,8.40
2023-01-02T17:13:48.283Z,6.93
2023-01-02T17:17:51.879Z,6.17
2023-01-02T17:21:55.207Z,9.10
2023-01-02T17:26:00.083Z,5.87
2023-01-02T17:30:04.615Z,5.60
2023-01-02T17:34:10.181Z,7.87
2023-01-02T17:38:13.794Z,9.73
2023-01-02T17:42:23.212Z,11.10
2023-01-02T17:47:00.899Z,7.87
2023-01-02T17:50:52.492Z,9.23
2023-01-02T17:54:57.001Z,9.13
2023-01-02T17:59:01.844Z,12.33
2023-01-02T18:03:08.908Z,8.73
2023-01-02T18:07:13.328Z,9.70
2023-01-02T18:11:17.886Z,9.77
2023-01-02T18:15:24.087Z,13.50
2023-01-02T18:19:33.293Z,12.63
2023-01-02T18:23:36.559Z,10.47
2023-01-02T18:27:40.279Z,18.53
2023-01-02T18:31:46.361Z,9.90
2023-01-02T18:35:57.775Z,12.07
2023-01-02T18:40:02.724Z,12.57
2023-01-02T18:44:18.998Z,9.80
2023-01-02T18:48:24.702Z,11.07
2023-01-02T18:52:30.399Z,12.77
2023-01-02T18:56:37.036Z,15.17
2023-01-02T19:00:41.740Z,12.23
2023-01-02T19:04:46.838Z,24.87
2023-01-02T19:08:51.224Z,30.50
2023-01-02T19:13:07.918Z,37.73
2023-01-02T19:17:23.872Z,27.43
2023-01-02T19:21:30.847Z,35.50
2023-01-02T19:25:34.322Z,56.00
2023-01-02T19:29:38.858Z,49.07
2023-01-02T19:33:44.887Z,36.50
2023-01-02T19:37:50.725Z,50.73
2023-01-02T19:42:26.484Z,51.10
2023-01-02T19:46:30.866Z,47.87
2023-01-02T19:50:35.433Z,33.70
2023-01-02T19:54:41.256Z,60.47
2023-01-02T19:58:45.855Z,50.93
2023-01-02T20:02:51.953Z,35.63
2023-01-02T20:06:57.245Z,41.40
2023-01-02T20:11:03.034Z,105.47
2023-01-02T20:15:10.233Z,81.57
2023-01-02T20:19:15.035Z,56.43
2023-01-02T20:23:18.728Z,49.73
2023-01-02T20:27:25.525Z,58.93
2023-01-02T20:31:30.399Z,56.10
2023-01-02T20:35:35.142Z,88.40
2023-01-02T20:39:39.032Z,43.83
2023-01-02T20:43:45.165Z,35.33
2023-01-02T20:47:49.661Z,27.10
2023-01-02T20:51:56.494Z,31.63
2023-01-02T20:56:01.371Z,41.17
2023-01-02T21:00:10.882Z,38.37
2023-01-02T21:04:18.644Z,40.43
2023-01-02T21:08:24.923Z,36.13
2023-01-02T21:12:46.443Z,31.63
2023-01-02T21:16:53.411Z,36.30
2023-01-02T21:21:00.009Z,20.50
2023-01-02T21:25:03.673Z,24.33
2023-01-02T21:29:07.580Z,16.90
2023-01-02T21:33:12.601Z,15.87
2023-01-02T21:37:16.301Z,10.50
2023-01-02T21:41:37.205Z,12.43
2023-01-02T21:45:40.733Z,14.87
2023-01-02T21:49:45.872Z,14.57
2023-01-02T21:53:49.259Z,21.03
2023-01-02T22:02:18.167Z,14.13
2023-01-02T22:06:23.135Z,11.97
2023-01-02T22:10:26.633Z,13.20
2023-01-02T22:14:32.311Z,12.07
2023-01-02T22:18:38.288Z,22.17
2023-01-02T22:22:43.263Z,24.80
2023-01-02T22:26:48.184Z,27.10
2023-01-02T22:30:51.456Z,15.07
2023-01-02T22:34:55.200Z,31.27
2023-01-02T22:39:26.933Z,22.20
2023-01-02T22:43:24.855Z,14.67
2023-01-02T22:47:33.464Z,19.80
2023-01-02T22:52:06.120Z,15.80
2023-01-02T22:56:11.949Z,15.37
2023-01-02T23:00:17.023Z,15.77
2023-01-02T23:04:22.941Z,16.03
2023-01-02T23:08:26.665Z,10.63
2023-01-02T23:12:31.957Z,13.27
2023-01-02T23:16:53.930Z,14.07
2023-01-02T23:20:57.528Z,11.57
2023-01-02T23:25:01.608Z,12.50
2023-01-02T23:29:08.417Z,11.60
2023-01-02T23:33:12.747Z,11.03
2023-01-02T23:37:16.340Z,9.37
2023-01-02T23:41:20.192Z,9.60
2023-01-02T23:45:25.165Z,10.80
2023-01-02T23:49:29.064Z,10.10
2023-01-02T23:53:33.773Z,10.67
2023-01-02T23:57:37.355Z,11.23
